Time;durP1;ratioP1;P1;durP2;ratioP2;P2;SDS_P1;SDS_P2;PMS_P1;PMS_P2;Temp;Humidity;BMP_temperature;BMP_pressure;BME280_temperature;BME280_humidity;BME280_pressure;Samples;Min_cycle;Max_cycle;Signal;HPM_P1;HPM_P2
2024/02/29 00:01:52;;;;;;;17.52;10.07;;;;;;;11.18;52.15;95402.00;5008148;28;20407;-75
2024/02/29 00:04:18;;;;;;;15.50;10.35;;;;;;;11.16;52.23;95401.66;5009981;28;20550;-75
2024/02/29 00:06:43;;;;;;;14.18;9.65;;;;;;;11.09;52.16;95391.59;5008398;28;20076;-75
2024/02/29 00:09:09;;;;;;;15.80;9.75;;;;;;;11.15;52.07;95400.13;5009888;28;20026;-76
2024/02/29 00:11:34;;;;;;;14.90;8.90;;;;;;;11.17;51.73;95397.69;5008668;28;20129;-75
2024/02/29 00:14:00;;;;;;;18.05;9.45;;;;;;;11.13;51.77;95403.31;5009143;28;20018;-75
2024/02/29 00:16:25;;;;;;;13.30;8.52;;;;;;;11.09;51.80;95405.34;5009601;28;20405;-76
2024/02/29 00:18:50;;;;;;;16.90;9.15;;;;;;;11.08;51.82;95394.78;5008526;28;20080;-74
2024/02/29 00:21:16;;;;;;;16.58;9.60;;;;;;;10.97;52.19;95397.00;5009611;28;20106;-75
2024/02/29 00:23:41;;;;;;;19.33;10.55;;;;;;;10.87;52.78;95398.78;5008040;28;20026;-75
2024/02/29 00:26:07;;;;;;;14.07;9.90;;;;;;;10.75;53.05;95399.47;5009876;28;20104;-75
2024/02/29 00:28:32;;;;;;;17.75;9.48;;;;;;;10.72;53.09;95405.81;5008236;28;20541;-75
2024/02/29 00:30:58;;;;;;;17.25;9.32;;;;;;;10.70;52.89;95400.75;5009412;28;20030;-74
2024/02/29 00:33:23;;;;;;;18.42;9.52;;;;;;;10.78;52.74;95398.59;5009209;28;20036;-76
2024/02/29 00:35:49;;;;;;;19.08;10.23;;;;;;;10.72;52.88;95398.31;5008237;28;20030;-76
2024/02/29 00:38:14;;;;;;;16.77;10.18;;;;;;;10.75;52.86;95396.72;5009383;28;20022;-76
2024/02/29 00:40:40;;;;;;;12.48;8.85;;;;;;;10.75;52.71;95400.22;5007390;28;20037;-77
2024/02/29 00:43:05;;;;;;;15.07;9.07;;;;;;;10.68;52.96;95403.16;5009384;28;20108;-75
2024/02/29 00:45:31;;;;;;;13.18;8.65;;;;;;;10.69;52.93;95396.44;5007424;28;20064;-75
2024/02/29 00:47:56;;;;;;;12.98;8.90;;;;;;;10.62;53.06;95405.63;5009623;28;20084;-75
2024/02/29 00:50:21;;;;;;;16.98;9.70;;;;;;;10.54;53.25;95406.97;5008119;28;20053;-75
2024/02/29 00:52:47;;;;;;;14.63;9.30;;;;;;;10.52;53.32;95397.59;5008368;28;20034;-74
2024/02/29 00:55:13;;;;;;;16.95;8.73;;;;;;;10.42;53.16;95393.88;5009180;28;20041;-74
2024/02/29 00:57:39;;;;;;;14.32;8.23;;;;;;;10.53;53.01;95399.16;5007583;28;20033;-74
2024/02/29 01:00:08;;;;;;;13.68;8.73;;;;;;;10.44;52.96;95402.47;5009131;28;20451;-76
2024/02/29 01:02:33;;;;;;;18.45;9.10;;;;;;;10.41;53.50;95402.56;5006803;28;20585;-76
2024/02/29 01:04:59;;;;;;;16.63;9.25;;;;;;;10.36;53.85;95407.34;5008878;28;20029;-76
2024/02/29 01:07:26;;;;;;;16.13;9.35;;;;;;;10.31;53.87;95396.06;5007617;28;20022;-74
2024/02/29 01:09:51;;;;;;;13.25;9.18;;;;;;;10.41;53.57;95408.81;5008347;28;20030;-75
2024/02/29 01:12:17;;;;;;;13.13;8.50;;;;;;;10.47;53.43;95404.38;5008176;28;20048;-75
2024/02/29 01:14:42;;;;;;;16.52;9.15;;;;;;;10.48;53.70;95416.13;5007818;28;20021;-75
2024/02/29 01:17:08;;;;;;;14.75;8.60;;;;;;;10.37;53.65;95410.84;5008704;28;20026;-75
2024/02/29 01:19:33;;;;;;;16.65;9.05;;;;;;;10.26;53.91;95407.53;5006901;28;20029;-76
2024/02/29 01:21:59;;;;;;;13.80;8.73;;;;;;;10.16;54.17;95417.53;5008793;28;20026;-75
2024/02/29 01:24:24;;;;;;;17.85;8.93;;;;;;;10.16;54.09;95414.78;5006768;28;20037;-75
2024/02/29 01:26:50;;;;;;;14.65;9.18;;;;;;;10.21;54.16;95421.78;5008505;28;20068;-76
2024/02/29 01:29:15;;;;;;;13.38;8.20;;;;;;;10.21;54.00;95413.53;5007959;28;20034;-76
2024/02/29 01:31:41;;;;;;;12.75;8.00;;;;;;;10.25;53.94;95422.50;5007580;28;20021;-75
2024/02/29 01:34:06;;;;;;;12.10;8.38;;;;;;;10.23;53.82;95409.19;5008630;28;20037;-74
2024/02/29 01:36:31;;;;;;;12.32;7.75;;;;;;;10.27;53.72;95404.41;5006782;28;20117;-75
2024/02/29 01:38:57;;;;;;;19.50;8.75;;;;;;;10.17;54.14;95408.09;5008335;28;20041;-75
2024/02/29 01:41:22;;;;;;;12.77;8.48;;;;;;;10.13;54.24;95410.13;5006347;28;20057;-75
2024/02/29 01:43:52;;;;;;;13.93;9.25;;;;;;;10.07;54.38;95409.06;5008107;28;20057;-75
2024/02/29 01:46:18;;;;;;;10.73;8.57;;;;;;;10.16;54.02;95401.06;5007042;28;20030;-77
2024/02/29 01:48:44;;;;;;;15.00;8.13;;;;;;;10.10;54.07;95392.53;5005973;28;20045;-75
2024/02/29 01:51:09;;;;;;;16.30;8.77;;;;;;;10.14;53.73;95397.94;5007962;28;20055;-75
2024/02/29 01:53:35;;;;;;;13.48;7.93;;;;;;;10.07;53.79;95381.59;5006338;28;20553;-76
2024/02/29 01:56:01;;;;;;;14.40;8.50;;;;;;;10.13;53.84;95398.38;5006944;28;20100;-76
2024/02/29 01:58:26;;;;;;;16.00;8.45;;;;;;;10.06;53.97;95402.03;5006399;28;20120;-75
2024/02/29 02:00:52;;;;;;;11.60;7.65;;;;;;;10.08;54.05;95402.38;5007892;28;20038;-76
2024/02/29 02:03:17;;;;;;;12.30;8.02;;;;;;;10.04;54.11;95404.44;5005975;28;20109;-76
2024/02/29 02:05:43;;;;;;;13.85;8.68;;;;;;;10.02;54.44;95404.84;5005954;28;20034;-76
2024/02/29 02:08:08;;;;;;;14.38;9.35;;;;;;;9.96;54.93;95400.25;5007099;28;20409;-75
2024/02/29 02:10:34;;;;;;;19.25;9.32;;;;;;;9.88;55.38;95407.88;5004964;28;20053;-75
2024/02/29 02:13:00;;;;;;;15.05;9.02;;;;;;;9.84;55.23;95407.16;5006104;28;20034;-75
2024/02/29 02:15:26;;;;;;;14.38;8.57;;;;;;;9.91;54.90;95406.25;5005674;28;20018;-75
2024/02/29 02:17:51;;;;;;;12.35;8.05;;;;;;;9.86;55.00;95410.25;5007625;28;20030;-76
2024/02/29 02:20:17;;;;;;;11.98;8.73;;;;;;;9.93;54.77;95404.63;5005814;28;20400;-75
2024/02/29 02:22:43;;;;;;;18.05;8.35;;;;;;;9.99;54.58;95404.94;5007572;28;20021;-75
2024/02/29 02:25:08;;;;;;;14.23;8.63;;;;;;;9.88;55.08;95405.13;5006396;28;20504;-76
2024/02/29 02:27:34;;;;;;;12.15;8.05;;;;;;;9.84;55.17;95407.94;5006558;28;20034;-74
2024/02/29 02:29:59;;;;;;;12.80;9.23;;;;;;;9.82;55.16;95407.56;5007453;28;20041;-75
2024/02/29 02:32:25;;;;;;;13.05;8.45;;;;;;;9.74;55.28;95400.66;5005938;28;20419;-75
2024/02/29 02:34:50;;;;;;;16.90;8.77;;;;;;;9.87;55.05;95405.56;5007440;28;20571;-75
2024/02/29 02:37:15;;;;;;;14.10;8.77;;;;;;;9.78;55.21;95398.63;5004119;28;20030;-75
2024/02/29 02:39:41;;;;;;;14.25;8.70;;;;;;;9.71;55.54;95400.72;5007125;28;20044;-75
2024/02/29 02:42:07;;;;;;;15.57;8.88;;;;;;;9.73;55.31;95415.56;5005675;28;20109;-75
2024/02/29 02:44:32;;;;;;;11.30;8.07;;;;;;;9.76;55.30;95417.50;5006493;28;20018;-75
2024/02/29 02:46:57;;;;;;;12.40;7.93;;;;;;;9.76;55.15;95405.75;5006686;28;20396;-74
2024/02/29 02:49:23;;;;;;;18.17;9.60;;;;;;;9.67;56.00;95403.53;5005767;28;20022;-74
2024/02/29 02:51:48;;;;;;;16.58;10.68;;;;;;;9.53;56.90;95393.59;5006987;28;20097;-76
2024/02/29 02:54:13;;;;;;;13.85;9.40;;;;;;;9.57;56.81;95402.50;5005776;28;20435;-76
2024/02/29 02:56:39;;;;;;;15.88;10.32;;;;;;;9.55;56.60;95409.63;5006874;28;20109;-75
2024/02/29 02:59:04;;;;;;;18.85;9.65;;;;;;;9.60;56.70;95411.13;5005381;28;20091;-77
2024/02/29 03:01:29;;;;;;;16.00;9.38;;;;;;;9.48;56.53;95393.28;5006619;28;20105;-75
2024/02/29 03:03:55;;;;;;;15.30;9.45;;;;;;;9.59;56.11;95399.38;5005952;28;20461;-75
2024/02/29 03:06:20;;;;;;;15.60;8.73;;;;;;;9.62;55.87;95409.50;5021464;28;20461;-75
2024/02/29 03:08:46;;;;;;;17.05;8.93;;;;;;;9.61;56.04;95405.22;5006477;28;20044;-75
2024/02/29 03:11:11;;;;;;;18.08;9.98;;;;;;;9.58;56.04;95401.34;5005569;28;20042;-75
2024/02/29 03:13:38;;;;;;;13.52;8.63;;;;;;;9.55;56.15;95398.66;5006983;28;20026;-75
2024/02/29 03:16:03;;;;;;;13.02;8.55;;;;;;;9.55;56.26;95391.19;5005200;28;20076;-75
2024/02/29 03:18:29;;;;;;;13.60;9.27;;;;;;;9.45;56.61;95383.13;5006697;28;20026;-77
2024/02/29 03:20:54;;;;;;;15.60;9.73;;;;;;;9.44;56.45;95395.31;5005376;28;20133;-76
2024/02/29 03:23:20;;;;;;;16.70;10.25;;;;;;;9.52;56.47;95394.00;5006531;28;20033;-75
2024/02/29 03:25:46;;;;;;;17.67;9.50;;;;;;;9.43;56.59;95388.28;5005837;28;20026;-75
2024/02/29 03:28:11;;;;;;;16.50;9.55;;;;;;;9.43;56.54;95399.25;5006046;28;20033;-75
2024/02/29 03:30:36;;;;;;;16.05;9.65;;;;;;;9.34;56.57;95379.81;5006813;28;20025;-75
2024/02/29 03:33:02;;;;;;;14.07;9.55;;;;;;;9.35;56.74;95376.66;5005359;28;20102;-76
2024/02/29 03:35:27;;;;;;;13.05;9.23;;;;;;;9.41;56.58;95385.19;5006745;28;20026;-75
2024/02/29 03:37:53;;;;;;;13.52;9.65;;;;;;;9.44;56.47;95379.63;5005077;28;20534;-75
2024/02/29 03:40:18;;;;;;;15.30;9.32;;;;;;;9.42;56.47;95384.75;5006916;28;20026;-76
2024/02/29 03:42:44;;;;;;;17.77;10.02;;;;;;;9.36;56.79;95386.44;5005357;28;20068;-75
2024/02/29 03:45:09;;;;;;;15.40;9.80;;;;;;;9.37;56.60;95378.97;5005888;28;20062;-75
2024/02/29 03:47:35;;;;;;;21.45;10.18;;;;;;;9.44;56.72;95378.84;5006000;28;20033;-76
2024/02/29 03:50:00;;;;;;;14.57;9.40;;;;;;;9.45;56.44;95372.16;5005268;28;20053;-75
2024/02/29 03:52:26;;;;;;;16.90;9.80;;;;;;;9.52;56.36;95374.81;5006545;28;20034;-77
2024/02/29 03:54:51;;;;;;;17.85;9.95;;;;;;;9.53;56.22;95379.09;5005046;28;20026;-75
2024/02/29 03:57:16;;;;;;;16.00;10.30;;;;;;;9.45;56.44;95377.66;5006636;28;20026;-75
2024/02/29 03:59:44;;;;;;;15.80;9.05;;;;;;;9.45;56.46;95372.94;5004616;28;20037;-76
2024/02/29 04:02:09;;;;;;;15.00;10.23;;;;;;;9.49;56.20;95378.38;5006145;28;20491;-75
2024/02/29 04:04:35;;;;;;;15.05;9.23;;;;;;;9.42;56.54;95384.75;5005290;28;20528;-75
2024/02/29 04:07:00;;;;;;;15.43;10.43;;;;;;;9.39;56.85;95373.84;5005487;28;20053;-75
2024/02/29 04:09:26;;;;;;;20.45;10.90;;;;;;;9.33;56.93;95379.03;5005901;28;20057;-75
2024/02/29 04:11:51;;;;;;;13.68;10.45;;;;;;;9.30;57.26;95371.66;5004632;28;20109;-76
2024/02/29 04:14:16;;;;;;;18.98;10.70;;;;;;;9.30;57.05;95366.16;5007683;28;20459;-75
2024/02/29 04:16:42;;;;;;;17.45;9.73;;;;;;;9.32;56.81;95361.03;5008007;28;20102;-75
2024/02/29 04:19:07;;;;;;;19.60;11.27;;;;;;;9.43;56.69;95355.34;5009978;28;20095;-75
2024/02/29 04:21:33;;;;;;;16.60;10.52;;;;;;;9.31;56.94;95363.00;5008214;28;20069;-75
2024/02/29 04:23:59;;;;;;;21.30;12.32;;;;;;;9.18;57.40;95377.72;5009462;28;20028;-77
2024/02/29 04:26:24;;;;;;;17.27;11.18;;;;;;;9.13;57.76;95378.97;5009576;28;20021;-75
2024/02/29 04:28:50;;;;;;;18.02;12.10;;;;;;;9.10;57.84;95370.78;5008437;28;20403;-75
2024/02/29 04:31:16;;;;;;;26.42;12.95;;;;;;;9.24;57.77;95373.31;5009889;28;20080;-76
2024/02/29 04:33:43;;;;;;;22.17;13.18;;;;;;;9.16;58.31;95378.13;5008006;28;20022;-76
2024/02/29 04:36:08;;;;;;;17.58;12.40;;;;;;;9.06;58.64;95368.13;5009656;28;20038;-76
2024/02/29 04:38:34;;;;;;;20.55;12.38;;;;;;;9.09;58.26;95366.50;5007993;28;20432;-75
2024/02/29 04:40:59;;;;;;;17.92;11.15;;;;;;;9.15;57.89;95367.59;5009242;28;20109;-75
2024/02/29 04:43:24;;;;;;;21.00;12.52;;;;;;;9.00;58.53;95364.28;5008925;28;20088;-77
2024/02/29 04:45:50;;;;;;;25.73;12.40;;;;;;;9.01;58.58;95363.88;5008346;28;20026;-77
2024/02/29 04:48:15;;;;;;;28.25;12.85;;;;;;;9.09;58.40;95361.03;5009101;28;20049;-77
2024/02/29 04:50:41;;;;;;;22.63;13.10;;;;;;;9.11;58.54;95364.13;5007451;28;20045;-76
2024/02/29 04:53:06;;;;;;;22.48;11.80;;;;;;;9.06;58.46;95373.63;5009605;28;20112;-76
2024/02/29 04:55:34;;;;;;;19.52;12.85;;;;;;;9.01;58.82;95368.59;5007711;28;20022;-76
2024/02/29 04:57:59;;;;;;;21.45;11.93;;;;;;;9.05;58.59;95369.28;5009263;28;20100;-76
2024/02/29 05:00:25;;;;;;;28.17;12.07;;;;;;;9.07;58.66;95371.66;5023218;28;20509;-77
2024/02/29 05:02:50;;;;;;;25.55;12.10;;;;;;;9.10;58.27;95368.06;5008038;28;20091;-77
2024/02/29 05:05:15;;;;;;;18.30;11.93;;;;;;;9.09;58.45;95361.78;5009072;28;20030;-77
2024/02/29 05:07:41;;;;;;;20.25;11.90;;;;;;;9.11;58.45;95372.34;5007296;28;20399;-77
2024/02/29 05:10:07;;;;;;;20.80;12.57;;;;;;;9.07;58.64;95364.19;5009000;28;20030;-77
2024/02/29 05:12:33;;;;;;;27.38;13.45;;;;;;;9.01;59.02;95372.13;5006797;28;20041;-77
2024/02/29 05:14:59;;;;;;;24.63;13.73;;;;;;;8.95;58.98;95364.78;5009164;28;20396;-76
2024/02/29 05:17:24;;;;;;;25.40;14.45;;;;;;;8.92;59.41;95369.13;5007479;28;20172;-77
2024/02/29 05:19:51;;;;;;;25.88;13.40;;;;;;;8.92;59.37;95371.84;5008268;28;20113;-76
2024/02/29 05:22:17;;;;;;;27.67;15.38;;;;;;;8.91;59.44;95369.53;5007996;28;20046;-77
2024/02/29 05:24:42;;;;;;;29.15;14.38;;;;;;;8.93;59.19;95383.59;5007112;28;20026;-76
2024/02/29 05:27:08;;;;;;;26.25;14.05;;;;;;;8.98;59.06;95380.38;5008591;28;20125;-77
2024/02/29 05:29:33;;;;;;;24.63;14.10;;;;;;;8.96;59.12;95380.03;5007036;28;20050;-76
2024/02/29 05:31:59;;;;;;;25.73;15.90;;;;;;;8.95;59.02;95382.00;5008924;28;20045;-78
2024/02/29 05:34:24;;;;;;;27.13;15.20;;;;;;;9.01;58.84;95390.53;5007282;28;20033;-78
2024/02/29 05:36:49;;;;;;;27.02;15.25;;;;;;;8.96;59.24;95380.03;5008319;28;20429;-76
2024/02/29 05:39:15;;;;;;;29.67;17.52;;;;;;;8.90;59.51;95387.19;5007338;28;20034;-77
2024/02/29 05:41:41;;;;;;;30.45;17.45;;;;;;;8.95;59.29;95387.50;5008032;28;20882;-78
2024/02/29 05:44:08;;;;;;;33.95;17.30;;;;;;;9.03;59.10;95396.38;5008377;28;20029;-77
2024/02/29 05:46:34;;;;;;;29.25;17.45;;;;;;;9.08;58.98;95400.63;5006839;28;20034;-76
2024/02/29 05:48:59;;;;;;;33.33;17.92;;;;;;;9.14;58.85;95391.50;5008594;28;20504;-77
2024/02/29 05:51:25;;;;;;;33.15;18.67;;;;;;;9.15;59.07;95405.97;5006527;28;20033;-77
2024/02/29 05:53:50;;;;;;;29.05;20.20;;;;;;;9.09;59.15;95410.38;5008388;28;20030;-75
2024/02/29 05:56:15;;;;;;;33.28;20.27;;;;;;;9.07;59.04;95399.84;5006622;28;20501;-74
2024/02/29 05:58:42;;;;;;;28.10;19.55;;;;;;;9.01;59.38;95410.50;5007780;28;20021;-77
2024/02/29 06:01:08;;;;;;;32.13;18.23;;;;;;;9.03;59.24;95399.88;5007099;28;20072;-76
2024/02/29 06:03:34;;;;;;;29.40;18.70;;;;;;;9.01;59.37;95402.28;5006970;28;20049;-75
2024/02/29 06:06:00;;;;;;;32.35;18.52;;;;;;;9.05;59.34;95402.19;5008046;28;20491;-75
2024/02/29 06:08:25;;;;;;;24.52;17.30;;;;;;;9.07;59.29;95399.84;5005536;28;20609;-75
2024/02/29 06:10:51;;;;;;;24.85;16.77;;;;;;;9.10;59.45;95400.97;5006378;28;20325;-73
2024/02/29 06:13:16;;;;;;;30.08;19.02;;;;;;;9.02;59.57;95397.56;5005691;28;20029;-74
2024/02/29 06:15:42;;;;;;;29.13;17.88;;;;;;;9.06;59.59;95403.78;5007341;28;20061;-75
2024/02/29 06:18:07;;;;;;;29.40;17.40;;;;;;;9.16;59.47;95402.81;5005980;28;20029;-74
2024/02/29 06:20:32;;;;;;;30.13;17.52;;;;;;;9.17;59.52;95398.88;5006063;28;20034;-75
2024/02/29 06:22:58;;;;;;;27.40;18.98;;;;;;;9.23;59.45;95390.94;5007373;28;20488;-76
2024/02/29 06:25:24;;;;;;;35.55;17.55;;;;;;;9.24;59.17;95387.81;5006197;28;20054;-76
2024/02/29 06:27:50;;;;;;;32.17;18.30;;;;;;;9.36;59.06;95391.16;5007522;28;20113;-75
2024/02/29 06:30:15;;;;;;;33.42;18.23;;;;;;;9.39;58.99;95398.53;5005656;28;20480;-74
2024/02/29 06:32:43;;;;;;;31.42;18.88;;;;;;;9.40;58.85;95405.56;5007669;28;20025;-75
2024/02/29 06:35:09;;;;;;;30.25;18.15;;;;;;;9.43;58.70;95391.78;5005866;28;20061;-75
2024/02/29 06:37:35;;;;;;;28.05;17.13;;;;;;;9.44;58.62;95398.84;5006392;28;20037;-76
2024/02/29 06:40:00;;;;;;;30.48;17.55;;;;;;;9.47;58.71;95408.22;5006832;28;20025;-75
2024/02/29 06:42:25;;;;;;;35.47;18.30;;;;;;;9.44;59.01;95406.28;5006316;28;20481;-75
2024/02/29 06:44:52;;;;;;;36.53;19.13;;;;;;;9.43;58.84;95402.00;5006755;28;20025;-76
2024/02/29 06:47:18;;;;;;;29.90;17.80;;;;;;;9.48;58.40;95399.56;5005632;28;20034;-75
2024/02/29 06:49:43;;;;;;;30.65;17.23;;;;;;;9.38;58.51;95403.25;5007168;28;20123;-77
2024/02/29 06:52:09;;;;;;;27.10;16.25;;;;;;;9.48;58.41;95409.75;5005636;28;20022;-75
2024/02/29 06:54:35;;;;;;;32.72;18.23;;;;;;;9.51;58.38;95414.41;5006988;28;20081;-75
2024/02/29 06:57:00;;;;;;;28.40;18.25;;;;;;;9.45;58.36;95407.84;5005800;28;20157;-75
2024/02/29 06:59:26;;;;;;;32.17;18.63;;;;;;;9.58;58.34;95414.28;5006586;28;20034;-76
2024/02/29 07:01:51;;;;;;;36.45;21.08;;;;;;;9.55;58.20;95404.91;5006610;28;20105;-75
2024/02/29 07:04:16;;;;;;;35.70;21.23;;;;;;;9.53;58.27;95399.06;5005592;28;20057;-74
2024/02/29 07:06:42;;;;;;;33.70;20.55;;;;;;;9.57;58.30;95401.75;5006818;28;20390;-76
2024/02/29 07:09:07;;;;;;;47.00;23.88;;;;;;;9.61;58.43;95404.44;5005248;28;20036;-76
2024/02/29 07:11:33;;;;;;;39.53;23.17;;;;;;;9.56;58.36;95403.72;5006874;28;20049;-75
2024/02/29 07:13:59;;;;;;;39.50;22.77;;;;;;;9.64;58.21;95415.38;5003700;28;20080;-76
2024/02/29 07:16:25;;;;;;;30.80;19.75;;;;;;;9.69;58.45;95425.88;5006779;28;20115;-75
2024/02/29 07:18:51;;;;;;;35.90;19.58;;;;;;;9.63;58.59;95416.53;5006091;28;20026;-75
2024/02/29 07:21:16;;;;;;;36.25;18.75;;;;;;;9.67;58.29;95405.50;5006329;28;20022;-76
2024/02/29 07:23:41;;;;;;;34.08;19.05;;;;;;;9.63;58.57;95405.56;5006562;28;20410;-75
2024/02/29 07:26:07;;;;;;;32.75;18.75;;;;;;;9.61;58.68;95396.97;5005414;28;20018;-76
2024/02/29 07:28:32;;;;;;;29.02;18.45;;;;;;;9.67;58.51;95389.81;5007318;28;20030;-75
2024/02/29 07:30:58;;;;;;;28.10;16.90;;;;;;;9.64;58.94;95387.91;5005049;28;20459;-74
2024/02/29 07:33:24;;;;;;;27.45;17.50;;;;;;;9.73;58.63;95387.34;5007138;28;20018;-75
2024/02/29 07:35:49;;;;;;;33.22;18.27;;;;;;;9.62;58.64;95379.31;5005439;28;20496;-75
2024/02/29 07:38:14;;;;;;;31.75;18.02;;;;;;;9.69;58.86;95387.44;5006441;28;20105;-76
2024/02/29 07:40:40;;;;;;;27.75;17.17;;;;;;;9.69;58.87;95392.91;5006098;28;20386;-76
2024/02/29 07:43:06;;;;;;;31.70;18.13;;;;;;;9.70;59.07;95383.50;5005156;28;20104;-76
2024/02/29 07:45:31;;;;;;;27.20;17.67;;;;;;;9.73;59.00;95390.88;5006682;28;20032;-74
2024/02/29 07:47:56;;;;;;;28.60;17.40;;;;;;;9.77;58.80;95394.34;5004970;28;20125;-74
2024/02/29 07:50:22;;;;;;;34.40;20.08;;;;;;;9.82;58.75;95390.34;5010600;28;20697;-75
2024/02/29 07:52:47;;;;;;;31.20;21.35;;;;;;;9.83;58.97;95387.16;5008765;28;20030;-75
2024/02/29 07:55:14;;;;;;;33.28;19.92;;;;;;;9.93;58.55;95388.16;5010453;28;20060;-74
2024/02/29 07:57:40;;;;;;;36.03;20.80;;;;;;;9.97;58.34;95374.34;5009644;28;20080;-75
2024/02/29 08:00:07;;;;;;;36.05;18.63;;;;;;;10.02;58.15;95380.13;5009714;28;20052;-76
2024/02/29 08:02:33;;;;;;;29.13;19.40;;;;;;;10.03;58.32;95383.63;5010120;28;20492;-76
2024/02/29 08:04:59;;;;;;;33.45;19.60;;;;;;;10.07;58.36;95385.13;5008448;28;20076;-76
2024/02/29 08:07:24;;;;;;;34.55;21.08;;;;;;;10.09;58.43;95379.19;5010554;28;20135;-77
2024/02/29 08:09:50;;;;;;;30.25;20.15;;;;;;;10.10;58.46;95373.31;5008460;28;20493;-76
2024/02/29 08:12:15;;;;;;;35.58;19.55;;;;;;;10.16;58.32;95373.59;5009983;28;20472;-75
2024/02/29 08:14:41;;;;;;;42.42;20.80;;;;;;;10.20;58.19;95373.50;5008606;28;20026;-76
2024/02/29 08:17:06;;;;;;;38.28;20.45;;;;;;;10.23;58.06;95373.47;5009850;28;20026;-76
2024/02/29 08:19:32;;;;;;;34.33;21.25;;;;;;;10.25;58.21;95376.56;5009877;28;20449;-76
2024/02/29 08:21:57;;;;;;;36.42;21.63;;;;;;;10.28;58.08;95375.72;5008419;28;20026;-75
2024/02/29 08:24:23;;;;;;;36.65;21.85;;;;;;;10.30;58.13;95364.28;5010100;28;20046;-76
2024/02/29 08:26:48;;;;;;;38.28;21.77;;;;;;;10.33;58.13;95366.97;5007756;28;20500;-77
2024/02/29 08:29:16;;;;;;;39.97;23.58;;;;;;;10.36;58.07;95352.38;5009972;28;20080;-74
2024/02/29 08:31:42;;;;;;;40.35;22.45;;;;;;;10.43;58.09;95347.91;5007891;28;20122;-76
2024/02/29 08:34:08;;;;;;;41.55;22.90;;;;;;;10.48;57.99;95341.91;5009574;28;20022;-77
2024/02/29 08:36:34;;;;;;;40.88;22.85;;;;;;;10.43;58.11;95334.94;5008996;28;20029;-76
2024/02/29 08:38:59;;;;;;;40.00;23.88;;;;;;;10.47;57.99;95330.16;5008460;28;20113;-76
2024/02/29 08:41:25;;;;;;;41.13;23.65;;;;;;;10.52;57.92;95318.66;5009887;28;20018;-77
2024/02/29 08:43:51;;;;;;;40.65;22.98;;;;;;;10.52;57.99;95315.13;5022832;28;20030;-76
2024/02/29 08:46:16;;;;;;;40.50;23.67;;;;;;;10.50;58.03;95312.81;5009588;28;20416;-75
2024/02/29 08:48:42;;;;;;;39.50;23.73;;;;;;;10.54;58.02;95308.00;5007728;28;20488;-76
2024/02/29 08:51:08;;;;;;;39.80;23.48;;;;;;;10.60;58.13;95314.53;5008039;28;20030;-76
2024/02/29 08:53:33;;;;;;;43.15;24.17;;;;;;;10.66;58.06;95317.56;5008258;28;20029;-76
2024/02/29 08:55:59;;;;;;;35.38;20.40;;;;;;;10.72;57.94;95323.31;5008533;28;20513;-75
2024/02/29 08:58:24;;;;;;;30.90;18.20;;;;;;;10.66;58.27;95314.81;5009050;28;20029;-76
2024/02/29 09:00:49;;;;;;;31.55;18.65;;;;;;;10.68;58.27;95323.41;5006664;28;20037;-76
2024/02/29 09:03:15;;;;;;;32.97;18.05;;;;;;;10.74;58.07;95338.19;5008799;28;20087;-75
2024/02/29 09:05:41;;;;;;;36.17;18.67;;;;;;;10.58;58.75;95341.69;5007235;28;20077;-76
2024/02/29 09:08:09;;;;;;;37.80;19.70;;;;;;;10.70;58.75;95345.75;5009019;28;20118;-77
2024/02/29 09:10:36;;;;;;;33.22;19.35;;;;;;;10.78;58.59;95343.59;5007482;28;20428;-78
2024/02/29 09:13:04;;;;;;;36.00;20.90;;;;;;;10.78;58.57;95341.66;5008428;28;20120;-76
2024/02/29 09:15:29;;;;;;;32.03;19.25;;;;;;;10.78;58.41;95333.41;5008369;28;20062;-78
2024/02/29 09:17:55;;;;;;;33.75;19.17;;;;;;;10.88;58.17;95337.84;5007587;28;20456;-77
2024/02/29 09:20:20;;;;;;;35.50;19.90;;;;;;;10.95;57.60;95341.63;5008985;28;20428;-78
2024/02/29 09:22:46;;;;;;;38.28;20.77;;;;;;;10.98;57.59;95343.53;5007155;28;20034;-77
2024/02/29 09:25:11;;;;;;;34.55;19.48;;;;;;;10.98;57.64;95349.03;5008618;28;20384;-77
2024/02/29 09:27:38;;;;;;;37.38;19.63;;;;;;;10.98;57.73;95344.31;5006981;28;20044;-76
2024/02/29 09:30:04;;;;;;;38.08;20.70;;;;;;;11.11;57.34;95358.16;5008488;28;20026;-77
2024/02/29 09:32:29;;;;;;;42.30;22.63;;;;;;;11.12;57.29;95365.97;5007449;28;20097;-77
2024/02/29 09:34:54;;;;;;;38.17;23.15;;;;;;;11.14;57.20;95357.31;5007683;28;20034;-78
2024/02/29 09:37:20;;;;;;;40.05;24.58;;;;;;;11.17;57.20;95361.94;5008339;28;20049;-78
2024/02/29 09:39:45;;;;;;;40.97;23.63;;;;;;;11.24;57.07;95359.03;5006580;28;20026;-76
2024/02/29 09:42:11;;;;;;;39.80;23.80;;;;;;;11.23;56.77;95348.44;5008349;28;20061;-76
2024/02/29 09:44:36;;;;;;;37.42;21.88;;;;;;;11.35;56.50;95365.00;5006440;28;20026;-77
2024/02/29 09:47:03;;;;;;;39.80;20.42;;;;;;;11.40;56.59;95358.22;5007036;28;20042;-76
2024/02/29 09:49:28;;;;;;;37.85;23.02;;;;;;;11.49;56.34;95360.38;5005518;28;20022;-77
2024/02/29 09:51:54;;;;;;;42.05;21.63;;;;;;;11.52;56.32;95360.25;5007856;28;20025;-78
2024/02/29 09:54:19;;;;;;;38.90;21.40;;;;;;;11.58;55.94;95357.75;5008041;28;20025;-77
2024/02/29 09:56:45;;;;;;;36.67;21.02;;;;;;;11.56;55.94;95358.19;5005268;28;20040;-77
2024/02/29 09:59:18;;;;;;;33.30;20.70;;;;;;;11.56;55.96;95365.69;5008121;28;20099;-77
2024/02/29 10:01:44;;;;;;;39.65;22.55;;;;;;;11.68;55.80;95362.22;5006370;28;20030;-77
2024/02/29 10:04:10;;;;;;;35.70;21.45;;;;;;;11.78;55.58;95352.91;5006718;28;20030;-77
2024/02/29 10:06:35;;;;;;;39.70;21.80;;;;;;;11.90;55.35;95360.47;5006555;28;20550;-78
2024/02/29 10:09:01;;;;;;;35.20;21.65;;;;;;;12.02;55.00;95361.72;5007770;28;20105;-78
2024/02/29 10:11:27;;;;;;;36.25;20.25;;;;;;;12.15;54.51;95354.25;5007109;28;20041;-77
2024/02/29 10:13:53;;;;;;;35.83;20.25;;;;;;;12.15;54.02;95331.44;5007235;28;20032;-78
2024/02/29 10:16:19;;;;;;;33.42;20.58;;;;;;;12.48;53.84;95346.63;5007808;28;20034;-77
2024/02/29 10:18:44;;;;;;;33.72;19.92;;;;;;;12.67;53.46;95344.09;5006046;28;20401;-79
2024/02/29 10:21:14;;;;;;;46.53;20.20;;;;;;;12.84;53.15;95342.78;5007780;28;20030;-78
2024/02/29 10:23:40;;;;;;;35.20;19.75;;;;;;;12.99;52.70;95343.09;5006070;28;20022;-78
2024/02/29 10:26:06;;;;;;;38.58;19.85;;;;;;;13.13;52.17;95330.84;5007774;28;20037;-78
2024/02/29 10:28:31;;;;;;;38.90;21.30;;;;;;;13.18;51.92;95313.72;5006785;28;20022;-78
2024/02/29 10:30:58;;;;;;;35.22;21.95;;;;;;;13.38;51.58;95335.59;5007078;28;20041;-79
2024/02/29 10:33:27;;;;;;;36.38;21.48;;;;;;;13.47;51.42;95338.41;5007301;28;20030;-79
2024/02/29 10:35:53;;;;;;;36.17;20.30;;;;;;;13.62;50.94;95338.72;5005902;28;20467;-78
2024/02/29 10:38:21;;;;;;;39.22;23.25;;;;;;;13.87;50.42;95333.09;5007423;28;20182;-78
2024/02/29 10:40:49;;;;;;;33.38;19.75;;;;;;;14.56;49.14;95321.13;5005609;28;20044;-78
2024/02/29 10:43:14;;;;;;;30.13;16.48;;;;;;;15.16;47.05;95317.22;5007995;28;20113;-77
2024/02/29 10:45:46;;;;;;;27.63;17.02;;;;;;;15.50;46.56;95313.44;5006313;28;20152;-77
2024/02/29 10:48:51;;;;;;;25.23;15.48;;;;;;;15.79;45.21;95315.78;5005785;28;20037;-76
2024/02/29 10:51:54;;;;;;;26.27;13.02;;;;;;;16.07;44.13;95305.47;5007344;28;20041;-77
2024/02/29 10:54:42;;;;;;;23.50;13.43;;;;;;;16.16;42.81;95303.44;5004827;28;20069;-77
2024/02/29 10:57:22;;;;;;;22.67;13.40;;;;;;;16.37;42.54;95298.16;5004505;28;20045;-78
2024/02/29 10:59:54;;;;;;;23.05;15.27;;;;;;;16.37;43.14;95298.16;5006912;28;20128;-78
2024/02/29 11:02:19;;;;;;;28.13;15.13;;;;;;;16.69;42.35;95297.47;5003835;28;20053;-78
2024/02/29 11:04:45;;;;;;;22.13;13.48;;;;;;;17.32;40.97;95288.53;5005661;28;20096;-78
2024/02/29 11:07:10;;;;;;;21.85;14.15;;;;;;;17.77;40.03;95293.03;5005221;28;20065;-77
2024/02/29 11:09:37;;;;;;;22.98;13.93;;;;;;;18.12;39.58;95281.28;5006668;28;20029;-77
2024/02/29 11:12:08;;;;;;;30.10;14.50;;;;;;;18.43;39.28;95289.19;5006112;28;20049;-77
2024/02/29 11:14:35;;;;;;;22.08;13.75;;;;;;;18.98;37.74;95286.56;5005786;28;20036;-78
2024/02/29 11:17:02;;;;;;;20.67;12.85;;;;;;;19.70;36.69;95283.25;5006768;28;20032;-78
2024/02/29 11:19:27;;;;;;;19.75;12.45;;;;;;;20.52;34.55;95275.50;5005459;28;20041;-77